WetterOnline ( https://www.wetteronline.de )

Wetter aktuell Rychvald

Aktuelles Wetter: Ostrava (260m)

6-stündlich | Neueste Meldungen
Ortszeit Temperatur Wetter
Mo, 16.12. 7:00 5.4° C leicht bewölkt
Mo, 16.12. 1:00 6.0° C bedeckt
So, 15.12. 19:00 8.9° C wolkig
So, 15.12. 13:00 11.4° C wolkig
So, 15.12. 7:00 5.5° C wolkig
So, 15.12. 1:00 5.4° C bewölkt
Sa, 14.12. 19:00 4.8° C leicht bewölkt
Sa, 14.12. 13:00 7.1° C leicht bewölkt
Ortszeit Temperatur Wetter
Mo, 16.12. 9:30 6° C -
Mo, 16.12. 9:00 5.5° C leicht bewölkt
Mo, 16.12. 8:30 4° C -
Mo, 16.12. 8:00 4.5° C leicht bewölkt
Mo, 16.12. 7:30 5° C -
Mo, 16.12. 7:00 5.4° C leicht bewölkt
Mo, 16.12. 6:30 5° C -
Mo, 16.12. 6:00 5.0° C leicht bewölkt
Ortszeit Relative Feuchte Sichtweite
Mo, 16.12. 7:00 85% 20 km
Mo, 16.12. 1:00 83% 20 km
So, 15.12. 19:00 60% 20 km
So, 15.12. 13:00 55% 40 km
So, 15.12. 7:00 67% 20 km
So, 15.12. 1:00 70% 15 km
Sa, 14.12. 19:00 80% 20 km
Sa, 14.12. 13:00 64% 25 km
Ortszeit Relative Feuchte Sichtweite
Mo, 16.12. 9:30 87% >10 km
Mo, 16.12. 9:00 86% 25 km
Mo, 16.12. 8:30 87% >10 km
Mo, 16.12. 8:00 87% 25 km
Mo, 16.12. 7:30 87% >10 km
Mo, 16.12. 7:00 85% 20 km
Mo, 16.12. 6:30 87% >10 km
Mo, 16.12. 6:00 84% 20 km
Ortszeit Niederschlagsmenge Niederschlagsart
Mo, 16.12. 7:00 0.1 l/m2 in 12 Std. -
Mo, 16.12. 1:00 0.1 l/m2 in 6 Std. Regen
So, 15.12. 19:00 0.7 l/m2 in 12 Std. -
So, 15.12. 13:00 0.7 l/m2 in 6 Std. Regen
So, 15.12. 7:00 0.1 l/m2 in 12 Std. -
So, 15.12. 1:00 0.1 l/m2 in 6 Std. Regen
Sa, 14.12. 19:00 0.5 l/m2 in 12 Std. Regen
Sa, 14.12. 13:00 0.0 l/m2 in 6 Std. -
Ortszeit Niederschlagsmenge Niederschlagsart
Mo, 16.12. 9:30 keine Meldung -
Mo, 16.12. 9:00 0.0 l/m2 in 1 Std. -
Mo, 16.12. 8:30 keine Meldung -
Mo, 16.12. 8:00 0.0 l/m2 in 1 Std. -
Mo, 16.12. 7:30 keine Meldung -
Mo, 16.12. 7:00 0.0 l/m2 in 1 Std. -
Mo, 16.12. 6:30 keine Meldung -
Mo, 16.12. 6:00 0.0 l/m2 in 1 Std. -
Ortszeit Stärke Spitze Richtung
km/h Bft. km/h Grad Sektor
Mo, 16.12. 7:00 4 1 - uml. uml.
Mo, 16.12. 1:00 18 3 43 230° SW
So, 15.12. 19:00 11 2 50 350° N
So, 15.12. 13:00 36 5 50 220° SW
So, 15.12. 7:00 7 2 40 230° SW
So, 15.12. 1:00 22 4 50 210° SW
Sa, 14.12. 19:00 40 6 58 240° SW
Sa, 14.12. 13:00 25 4 - 220° SW
Ortszeit Stärke Spitze Richtung
km/h Bft. km/h Grad Sektor
Mo, 16.12. 9:30 7 2 - 230° SW
Mo, 16.12. 9:00 11 2 - 240° SW
Mo, 16.12. 8:30 13 3 - 240° SW
Mo, 16.12. 8:00 11 2 - 240° SW
Mo, 16.12. 7:30 6 1 - 190° S
Mo, 16.12. 7:00 4 1 - uml. uml.
Mo, 16.12. 6:30 4 1 - uml. uml.
Mo, 16.12. 6:00 11 2 - 230° SW
Ortszeit Untergrenze Bedeckung Gattung
total tief tief mittel hoch
Mo, 16.12. 7:00 3900 m 6/8 6/8 - Ac Ci
Mo, 16.12. 1:00 1500 m 8/8 8/8 Sc - -
So, 15.12. 19:00 1500 m 7/8 5/8 Sc Ac Ci
So, 15.12. 13:00 1500 m 6/8 4/8 Sc Ac Ci
So, 15.12. 7:00 3300 m 7/8 7/8 - Ns -
So, 15.12. 1:00 1500 m 7/8 2/8 Sc As -
Sa, 14.12. 19:00 3600 m 4/8 4/8 - Ac -
Sa, 14.12. 13:00 900 m 5/8 3/8 Sc Ac Ci
Ortszeit Bedeckungsgrad in Achtel und Wolkenuntergrenze
Mo, 16.12. 9:30 keine Wolken(unter 1500 m)
Mo, 16.12. 9:00 3(3900m) 5(6000m)
Mo, 16.12. 8:30 keine Wolken(unter 1500 m)
Mo, 16.12. 8:00 6(3900m)
Mo, 16.12. 7:30 keine Wolken(unter 1500 m)
Mo, 16.12. 7:00 6(3900m)
Mo, 16.12. 6:30 keine Wolken(unter 1500 m)
Mo, 16.12. 6:00 4(3900m)
Ortszeit Luftdruck NN (hPa) Tendenz (hPa in 3 Std.)
Mo, 16.12. 7:00 1017 + 0,7
Mo, 16.12. 1:00 1016 + 1,0
So, 15.12. 19:00 1011 + 1,6
So, 15.12. 13:00 1006 - 2,3
So, 15.12. 7:00 1009 + 1,3
So, 15.12. 1:00 1006 + 0,7
Sa, 14.12. 19:00 1001 + 3,8
Sa, 14.12. 13:00 996 - 0,2
Ortszeit Luftdruck NN (hPa) Tendenz (hPa in 3 Std.)
Mo, 16.12. 9:30 1016 keine Meldung
Mo, 16.12. 9:00 1017 + 0,5
Mo, 16.12. 8:30 1016 keine Meldung
Mo, 16.12. 8:00 1017 + 0,3
Mo, 16.12. 7:30 1015 keine Meldung
Mo, 16.12. 7:00 1017 + 0,7
Mo, 16.12. 6:30 1015 keine Meldung
Mo, 16.12. 6:00 1017 + 1,1
Ortszeit Schneehöhe (cm)
Mo, 16.12. 7:00 -
Mo, 16.12. 1:00 -
So, 15.12. 19:00 0
So, 15.12. 13:00 -
So, 15.12. 7:00 -
So, 15.12. 1:00 -
Sa, 14.12. 19:00 -
Sa, 14.12. 13:00 -
Ortszeit Schneehöhe (cm)
Mo, 16.12. 9:30 -
Mo, 16.12. 9:00 -
Mo, 16.12. 8:30 -
Mo, 16.12. 8:00 -
Mo, 16.12. 7:30 -
Mo, 16.12. 7:00 -
Mo, 16.12. 6:30 -
Mo, 16.12. 6:00 -
Link zu dieser Seite / Seite empfehlen

Das Wetter in ...